createdAt,value
2023-06-04T00:00:40.124Z,41.30
2023-06-04T00:03:07.244Z,43.80
2023-06-04T00:05:34.424Z,41.20
2023-06-04T00:08:01.444Z,40.30
2023-06-04T00:10:28.418Z,36.90
2023-06-04T00:12:55.414Z,36.40
2023-06-04T00:15:22.393Z,38.90
2023-06-04T00:17:49.691Z,38.40
2023-06-04T00:20:16.981Z,37.80
2023-06-04T00:22:43.995Z,40.30
2023-06-04T00:25:11.433Z,40.20
2023-06-04T00:27:38.558Z,44.50
2023-06-04T00:30:06.444Z,45.70
2023-06-04T00:32:33.406Z,40.30
2023-06-04T00:35:01.312Z,42.30
2023-06-04T00:37:29.199Z,40.80
2023-06-04T00:39:56.252Z,40.70
2023-06-04T00:42:23.300Z,34.90
2023-06-04T00:44:50.280Z,40.30
2023-06-04T00:47:19.670Z,36.80
2023-06-04T00:49:46.633Z,38.60
2023-06-04T00:52:16.573Z,40.00
2023-06-04T00:54:43.779Z,40.40
2023-06-04T00:57:10.701Z,40.10
2023-06-04T00:59:39.918Z,44.10
2023-06-04T01:02:16.941Z,43.50
2023-06-04T01:04:50.197Z,45.20
2023-06-04T01:07:18.978Z,44.60
2023-06-04T01:09:46.576Z,45.30
2023-06-04T01:12:13.890Z,47.50
2023-06-04T01:14:41.986Z,46.00
2023-06-04T01:17:38.734Z,47.70
2023-06-04T01:20:36.800Z,42.20
2023-06-04T01:23:35.460Z,41.40
2023-06-04T01:26:04.911Z,33.50
2023-06-04T01:28:35.358Z,17.10
2023-06-04T01:31:03.966Z,6.00
2023-06-04T01:33:31.136Z,1.00
2023-06-04T01:35:58.135Z,1.00
2023-06-04T01:38:25.088Z,1.00
2023-06-04T01:40:54.189Z,1.00
2023-06-04T01:43:21.141Z,99.90
2023-06-04T01:45:48.456Z,99.90
2023-06-04T01:48:15.796Z,99.90
2023-06-04T01:50:42.732Z,1.00
2023-06-04T01:53:09.632Z,1.00
2023-06-04T01:55:36.591Z,99.90
2023-06-04T01:58:03.702Z,99.90
2023-06-04T02:00:30.913Z,71.90
2023-06-04T02:02:58.196Z,1.00
2023-06-04T02:05:25.389Z,1.00
2023-06-04T02:07:52.614Z,1.00
2023-06-04T02:10:20.629Z,99.90
2023-06-04T02:13:00.511Z,1.00
2023-06-04T02:15:28.350Z,1.00
2023-06-04T02:18:03.942Z,99.90
2023-06-04T02:20:31.061Z,33.10
2023-06-04T02:22:58.250Z,21.50
2023-06-04T02:25:25.301Z,1.00
2023-06-04T02:27:52.298Z,99.90
2023-06-04T02:30:19.302Z,99.90
2023-06-04T02:32:50.563Z,99.90
2023-06-04T02:35:19.998Z,99.90
2023-06-04T02:37:46.980Z,99.90
2023-06-04T02:40:14.080Z,99.90
2023-06-04T02:42:41.125Z,99.90
2023-06-04T02:45:08.757Z,99.90
2023-06-04T02:47:35.904Z,99.90
2023-06-04T02:50:04.712Z,68.60
2023-06-04T02:52:31.889Z,99.90
2023-06-04T02:54:58.826Z,34.80
2023-06-04T02:57:25.988Z,1.00
2023-06-04T02:59:53.188Z,1.00
2023-06-04T03:02:20.178Z,1.00
2023-06-04T03:04:49.212Z,99.90
2023-06-04T03:07:16.414Z,99.90
2023-06-04T03:09:43.342Z,99.90
2023-06-04T03:12:10.570Z,99.90
2023-06-04T03:14:37.865Z,99.90
2023-06-04T03:17:14.321Z,99.90
2023-06-04T03:19:42.693Z,99.90
2023-06-04T03:22:11.729Z,99.90
2023-06-04T03:24:41.081Z,99.90
2023-06-04T03:27:09.711Z,99.90
2023-06-04T03:29:37.477Z,99.90
2023-06-04T03:32:05.204Z,99.90
2023-06-04T03:34:35.347Z,99.90
2023-06-04T03:37:02.795Z,99.90
2023-06-04T03:39:29.843Z,99.90
2023-06-04T03:41:56.850Z,99.90
2023-06-04T03:44:24.191Z,99.90
2023-06-04T03:46:51.233Z,99.90
2023-06-04T03:49:18.519Z,99.90
2023-06-04T03:51:45.628Z,99.90
2023-06-04T03:54:13.011Z,99.90
2023-06-04T03:56:40.605Z,99.90
2023-06-04T03:59:07.525Z,99.90
2023-06-04T04:01:34.720Z,99.90
2023-06-04T04:04:01.898Z,99.90
2023-06-04T04:06:28.976Z,99.90
2023-06-04T04:08:56.465Z,99.90
2023-06-04T04:11:23.462Z,99.90
2023-06-04T04:13:50.424Z,94.20
2023-06-04T04:16:17.514Z,67.90
2023-06-04T04:18:45.417Z,51.00
2023-06-04T04:21:12.523Z,45.10
2023-06-04T04:23:41.984Z,20.30
2023-06-04T04:26:09.663Z,1.00
2023-06-04T04:28:36.720Z,1.00
2023-06-04T04:31:03.959Z,1.00
2023-06-04T04:33:33.853Z,1.00
2023-06-04T04:36:03.673Z,1.00
2023-06-04T04:38:32.523Z,1.00
2023-06-04T04:41:01.614Z,1.00
2023-06-04T04:43:38.771Z,1.00
2023-06-04T04:46:06.219Z,99.90
2023-06-04T04:48:33.351Z,99.90
2023-06-04T04:51:00.500Z,99.90
2023-06-04T04:53:28.058Z,99.90
2023-06-04T04:55:55.037Z,99.90
2023-06-04T04:58:22.268Z,99.90
2023-06-04T05:00:49.231Z,99.90
2023-06-04T05:03:16.353Z,99.90
2023-06-04T05:05:44.717Z,99.90
2023-06-04T05:08:11.713Z,99.90
2023-06-04T05:10:38.713Z,99.90
2023-06-04T05:13:08.434Z,99.90
2023-06-04T05:15:35.455Z,99.90
2023-06-04T05:18:03.344Z,99.90
2023-06-04T05:20:30.942Z,99.90
2023-06-04T05:22:57.947Z,99.90
2023-06-04T05:25:25.229Z,99.90
2023-06-04T05:27:52.388Z,99.90
2023-06-04T05:30:19.354Z,99.90
2023-06-04T05:32:46.390Z,99.90
2023-06-04T05:35:13.483Z,99.90
2023-06-04T05:37:43.185Z,99.90
2023-06-04T05:40:11.645Z,99.90
2023-06-04T05:42:39.022Z,99.90
2023-06-04T05:45:09.365Z,99.90
2023-06-04T05:47:36.389Z,99.90
2023-06-04T05:50:03.522Z,99.90
2023-06-04T05:52:30.543Z,99.90
2023-06-04T05:54:57.497Z,99.90
2023-06-04T05:57:24.499Z,99.90
2023-06-04T05:59:51.433Z,99.90
2023-06-04T06:02:18.571Z,99.90
2023-06-04T06:04:45.875Z,99.90
2023-06-04T06:07:13.029Z,99.90
2023-06-04T06:09:40.011Z,99.90
2023-06-04T06:12:07.318Z,99.90
2023-06-04T06:14:34.571Z,99.90
2023-06-04T06:17:04.199Z,99.90
2023-06-04T06:19:31.295Z,99.90
2023-06-04T06:21:59.808Z,99.90
2023-06-04T06:24:26.881Z,99.90
2023-06-04T06:26:53.998Z,99.90
2023-06-04T06:29:21.448Z,99.90
2023-06-04T06:31:48.749Z,99.90
2023-06-04T06:34:15.782Z,99.90
2023-06-04T06:36:43.106Z,99.90
2023-06-04T06:39:10.320Z,99.90
2023-06-04T06:41:39.562Z,99.90
2023-06-04T06:44:07.045Z,99.90
2023-06-04T06:46:34.597Z,99.90
2023-06-04T06:49:01.684Z,99.90
2023-06-04T06:51:28.686Z,99.90
2023-06-04T06:53:55.734Z,99.90
2023-06-04T06:56:23.259Z,99.90
2023-06-04T06:58:50.234Z,99.90
2023-06-04T07:01:17.159Z,99.90
2023-06-04T07:03:44.433Z,99.90
2023-06-04T07:06:11.433Z,99.90
2023-06-04T07:08:38.392Z,99.90
2023-06-04T07:11:05.768Z,99.90
2023-06-04T07:13:36.467Z,99.90
2023-06-04T07:16:03.893Z,99.90
2023-06-04T07:18:30.912Z,99.90
2023-06-04T07:20:58.140Z,99.90
2023-06-04T07:23:25.308Z,99.90
2023-06-04T07:25:52.715Z,99.90
2023-06-04T07:28:19.618Z,99.90
2023-06-04T07:30:47.219Z,99.90
2023-06-04T07:33:14.258Z,99.90
2023-06-04T07:35:41.251Z,99.90
2023-06-04T07:38:08.139Z,99.90
2023-06-04T07:40:35.142Z,99.90
2023-06-04T07:43:02.073Z,99.90
2023-06-04T07:45:32.514Z,99.90
2023-06-04T07:48:00.963Z,99.90
2023-06-04T07:50:28.086Z,99.90
2023-06-04T07:52:55.084Z,99.90
2023-06-04T07:55:22.023Z,99.90
2023-06-04T07:57:49.002Z,99.90
2023-06-04T08:00:18.930Z,99.90
2023-06-04T08:02:46.208Z,99.90
2023-06-04T08:05:15.004Z,99.90
2023-06-04T08:07:42.795Z,99.90
2023-06-04T08:10:10.265Z,99.90
2023-06-04T08:12:37.294Z,99.90
2023-06-04T08:15:04.924Z,99.90
2023-06-04T08:17:31.879Z,99.90
2023-06-04T08:19:59.012Z,99.90
2023-06-04T08:22:26.175Z,99.90
2023-06-04T08:24:53.140Z,99.90
2023-06-04T08:27:20.098Z,99.90
2023-06-04T08:29:47.111Z,99.90
2023-06-04T08:32:14.090Z,99.90
2023-06-04T08:34:41.392Z,99.90
2023-06-04T08:37:08.324Z,99.90
2023-06-04T08:39:35.283Z,99.90
2023-06-04T08:42:08.787Z,99.90
2023-06-04T08:44:36.087Z,99.90
2023-06-04T08:47:09.786Z,99.90
2023-06-04T08:49:37.701Z,99.90
2023-06-04T08:52:05.205Z,99.90
2023-06-04T08:54:33.604Z,99.90
2023-06-04T08:57:02.383Z,99.90
2023-06-04T08:59:29.467Z,99.90
2023-06-04T09:01:57.397Z,99.90
2023-06-04T09:04:25.000Z,99.90
2023-06-04T09:06:53.598Z,99.90
2023-06-04T09:09:22.382Z,99.90
2023-06-04T09:12:00.606Z,99.90
2023-06-04T09:14:27.775Z,99.90
2023-06-04T09:16:57.470Z,99.90
2023-06-04T09:19:24.447Z,99.90
2023-06-04T09:21:55.986Z,99.90
2023-06-04T09:24:39.518Z,99.90
2023-06-04T09:27:19.902Z,99.90
2023-06-04T09:29:51.680Z,99.90
2023-06-04T09:32:29.503Z,99.90
2023-06-04T09:35:17.034Z,99.90
2023-06-04T09:37:54.263Z,99.90
2023-06-04T09:40:21.564Z,99.90
2023-06-04T09:42:55.593Z,99.90
2023-06-04T09:45:34.355Z,99.90
2023-06-04T09:48:02.626Z,99.90
2023-06-04T09:50:32.308Z,99.90
2023-06-04T09:52:59.327Z,99.30
2023-06-04T09:55:26.541Z,97.50
2023-06-04T09:57:54.514Z,99.20
2023-06-04T10:00:23.798Z,99.90
2023-06-04T10:02:56.828Z,98.40
2023-06-04T10:05:24.986Z,98.20
2023-06-04T10:07:53.572Z,99.90
2023-06-04T10:10:27.561Z,96.00
2023-06-04T10:13:11.486Z,97.10
2023-06-04T10:15:39.239Z,99.20
2023-06-04T10:18:07.297Z,94.80
2023-06-04T10:20:35.065Z,91.80
2023-06-04T10:23:03.295Z,92.40
2023-06-04T10:25:30.537Z,95.00
2023-06-04T10:27:57.863Z,94.00
2023-06-04T10:30:24.962Z,95.30
2023-06-04T10:32:52.199Z,91.10
2023-06-04T10:35:30.117Z,91.00
2023-06-04T10:38:13.067Z,90.50
2023-06-04T10:40:40.589Z,91.40
2023-06-04T10:43:12.485Z,91.40
2023-06-04T10:45:40.647Z,91.00
2023-06-04T10:48:09.703Z,88.90
2023-06-04T10:54:27.366Z,90.40
2023-06-04T10:56:54.893Z,90.30
2023-06-04T10:59:22.838Z,92.10
2023-06-04T11:01:49.831Z,92.70
2023-06-04T11:04:27.153Z,91.20
2023-06-04T11:07:11.000Z,91.90
2023-06-04T11:09:39.180Z,99.30
2023-06-04T11:12:07.270Z,97.70
2023-06-04T11:14:34.268Z,99.90
2023-06-04T11:17:15.017Z,99.90
2023-06-04T11:19:42.081Z,99.90
2023-06-04T11:22:13.652Z,99.90
2023-06-04T11:24:40.753Z,99.90
2023-06-04T11:27:15.249Z,99.90
2023-06-04T11:29:51.400Z,99.90
2023-06-04T11:32:27.526Z,99.90
2023-06-04T11:35:07.894Z,99.90
2023-06-04T11:37:36.452Z,97.50
2023-06-04T11:43:51.354Z,93.40
2023-06-04T11:46:18.829Z,93.90
2023-06-04T11:48:45.974Z,91.90
2023-06-04T11:51:13.725Z,92.00
2023-06-04T11:53:41.162Z,91.50
2023-06-04T11:56:08.553Z,93.80
2023-06-04T11:58:35.941Z,93.30
2023-06-04T12:01:03.194Z,88.10
2023-06-04T12:03:38.776Z,88.80
2023-06-04T12:06:20.529Z,89.40
2023-06-04T12:08:54.607Z,93.30
2023-06-04T12:11:32.667Z,91.30
2023-06-04T12:14:02.110Z,86.60
2023-06-04T12:16:29.276Z,91.10
2023-06-04T12:19:07.797Z,90.00
2023-06-04T12:21:35.600Z,94.40
2023-06-04T12:24:12.805Z,95.50
2023-06-04T12:26:47.487Z,96.70
2023-06-04T12:29:17.481Z,94.40
2023-06-04T12:31:46.922Z,93.90
2023-06-04T12:34:18.922Z,94.20
2023-06-04T12:36:45.964Z,91.50
2023-06-04T12:39:13.012Z,94.80
2023-06-04T12:41:46.814Z,90.60
2023-06-04T12:44:13.835Z,90.60
2023-06-04T12:46:40.845Z,92.10
2023-06-04T12:49:07.838Z,93.10
2023-06-04T12:51:34.762Z,90.70
2023-06-04T12:54:01.781Z,92.90
2023-06-04T12:56:28.848Z,91.40
2023-06-04T12:58:55.829Z,92.10
2023-06-04T13:01:22.791Z,93.40
2023-06-04T13:03:50.109Z,91.80
2023-06-04T13:06:17.487Z,93.60
2023-06-04T13:08:44.533Z,94.20
2023-06-04T13:11:11.818Z,93.40
2023-06-04T13:13:38.777Z,96.00
2023-06-04T13:16:05.983Z,96.20
2023-06-04T13:18:32.995Z,96.60
2023-06-04T13:20:59.939Z,96.80
2023-06-04T13:23:34.275Z,94.50
2023-06-04T13:26:04.840Z,96.60
2023-06-04T13:28:31.857Z,95.20
2023-06-04T13:30:58.790Z,97.00
2023-06-04T13:33:26.144Z,95.00
2023-06-04T13:35:53.265Z,96.60
2023-06-04T13:38:20.487Z,92.40
2023-06-04T13:40:47.540Z,94.50
2023-06-04T13:43:14.592Z,97.50
2023-06-04T13:45:41.617Z,95.90
2023-06-04T13:48:08.969Z,94.00
2023-06-04T13:50:36.460Z,96.30
2023-06-04T13:53:03.426Z,93.80
2023-06-04T13:55:30.748Z,92.90
2023-06-04T13:57:57.694Z,93.70
2023-06-04T14:00:25.144Z,91.50
2023-06-04T14:02:53.715Z,90.10
2023-06-04T14:05:20.808Z,87.80
2023-06-04T14:07:48.014Z,86.90
2023-06-04T14:10:15.040Z,87.10
2023-06-04T14:12:42.279Z,91.30
2023-06-04T14:15:09.975Z,89.60
2023-06-04T14:17:37.039Z,90.70
2023-06-04T14:20:09.769Z,91.00
2023-06-04T14:22:37.961Z,88.40
2023-06-04T14:25:05.963Z,90.40
2023-06-04T14:27:33.993Z,90.90
2023-06-04T14:30:01.778Z,91.80
2023-06-04T14:32:28.718Z,91.30
2023-06-04T14:34:56.677Z,89.50
2023-06-04T14:41:11.764Z,89.30
2023-06-04T14:43:38.885Z,89.70
2023-06-04T14:46:06.202Z,81.50
2023-06-04T14:48:33.309Z,84.40
2023-06-04T14:51:00.545Z,83.40
2023-06-04T14:53:27.472Z,87.70
2023-06-04T14:55:54.463Z,88.20
2023-06-04T14:58:21.475Z,87.50
2023-06-04T15:00:48.493Z,81.30
2023-06-04T15:03:15.508Z,72.50
2023-06-04T15:05:42.558Z,66.30
2023-06-04T15:08:09.843Z,65.10
2023-06-04T15:10:37.062Z,70.50
2023-06-04T15:13:04.050Z,72.50
2023-06-04T15:15:31.015Z,71.90
2023-06-04T15:17:58.109Z,75.40
2023-06-04T15:20:26.337Z,78.90
2023-06-04T15:22:53.375Z,81.20
2023-06-04T15:25:21.106Z,79.40
2023-06-04T15:27:48.268Z,75.70
2023-06-04T15:30:15.304Z,76.20
2023-06-04T15:32:43.069Z,71.50
2023-06-04T15:35:10.587Z,72.30
2023-06-04T15:37:37.816Z,76.70
2023-06-04T15:40:08.598Z,70.30
2023-06-04T15:42:35.559Z,75.20
2023-06-04T15:45:02.568Z,75.00
2023-06-04T15:47:29.591Z,69.50
2023-06-04T15:49:56.611Z,72.40
2023-06-04T15:52:23.611Z,75.10
2023-06-04T15:54:50.725Z,76.90
2023-06-04T15:57:17.637Z,75.20
2023-06-04T15:59:44.688Z,75.10
2023-06-04T16:02:11.747Z,76.20
2023-06-04T16:04:38.763Z,77.50
2023-06-04T16:07:06.519Z,82.00
2023-06-04T16:09:33.954Z,83.00
2023-06-04T16:15:48.224Z,91.70
2023-06-04T16:18:15.186Z,88.00
2023-06-04T16:20:42.099Z,91.50
2023-06-04T16:23:09.108Z,94.70
2023-06-04T16:25:37.521Z,96.20
2023-06-04T16:28:05.018Z,94.20
2023-06-04T16:30:32.307Z,96.10
2023-06-04T16:32:59.439Z,97.30
2023-06-04T16:35:26.961Z,95.50
2023-06-04T16:37:54.275Z,98.60
2023-06-04T16:40:21.557Z,99.90
2023-06-04T16:42:48.546Z,99.90
2023-06-04T16:45:15.716Z,99.90
2023-06-04T16:47:43.997Z,99.90
2023-06-04T16:50:11.684Z,99.90
2023-06-04T16:52:38.934Z,99.90
2023-06-04T16:55:06.959Z,99.90
2023-06-04T16:57:33.967Z,99.90
2023-06-04T17:00:09.947Z,99.90
2023-06-04T17:02:37.330Z,99.90
2023-06-04T17:05:12.850Z,99.90
2023-06-04T17:07:50.573Z,99.90
2023-06-04T17:10:17.992Z,99.90
2023-06-04T17:12:44.958Z,99.90
2023-06-04T17:15:12.093Z,99.90
2023-06-04T17:17:39.045Z,99.90
2023-06-04T17:20:06.936Z,99.90
2023-06-04T17:22:33.929Z,99.90
2023-06-04T17:25:00.973Z,99.90
2023-06-04T17:27:27.873Z,99.90
2023-06-04T17:29:54.828Z,99.90
2023-06-04T17:32:21.938Z,99.90
2023-06-04T17:34:48.979Z,99.90
2023-06-04T17:37:15.998Z,99.90
2023-06-04T17:39:42.977Z,99.90
2023-06-04T17:42:09.929Z,99.90
2023-06-04T17:44:36.855Z,99.90
2023-06-04T17:47:06.818Z,99.90
2023-06-04T17:49:34.117Z,99.90
2023-06-04T17:52:01.190Z,99.90
2023-06-04T17:54:28.158Z,99.90
2023-06-04T17:56:55.115Z,99.90
2023-06-04T17:59:22.028Z,99.00
2023-06-04T18:01:49.090Z,98.80
2023-06-04T18:04:17.404Z,97.70
2023-06-04T18:06:44.387Z,96.80
2023-06-04T18:09:11.384Z,97.20
2023-06-04T18:11:38.340Z,94.70
2023-06-04T18:14:06.261Z,92.40
2023-06-04T18:16:33.454Z,92.80
2023-06-04T18:19:00.526Z,94.30
2023-06-04T18:21:27.494Z,93.90
2023-06-04T18:23:54.563Z,96.30
2023-06-04T18:26:21.824Z,97.10
2023-06-04T18:28:48.948Z,99.60
2023-06-04T18:31:15.921Z,99.90
2023-06-04T18:34:02.033Z,99.90
2023-06-04T18:36:30.080Z,99.90
2023-06-04T18:38:57.104Z,99.90
2023-06-04T18:41:24.195Z,99.90
2023-06-04T18:43:51.569Z,99.90
2023-06-04T18:46:19.738Z,99.90
2023-06-04T18:48:48.227Z,99.90
2023-06-04T18:51:15.595Z,99.90
2023-06-04T18:53:42.746Z,99.90
2023-06-04T18:56:09.998Z,99.90
2023-06-04T18:58:37.096Z,99.90
2023-06-04T19:01:04.044Z,99.90
2023-06-04T19:03:31.329Z,99.90
2023-06-04T19:05:58.278Z,99.90
2023-06-04T19:08:25.329Z,99.90
2023-06-04T19:10:53.107Z,99.90
2023-06-04T19:13:20.162Z,99.90
2023-06-04T19:15:47.220Z,99.90
2023-06-04T19:18:14.260Z,99.90
2023-06-04T19:20:41.214Z,99.90
2023-06-04T19:23:08.169Z,99.90
2023-06-04T19:25:35.198Z,99.90
2023-06-04T19:28:03.454Z,99.90
2023-06-04T19:30:31.055Z,99.90
2023-06-04T19:32:58.084Z,99.90
2023-06-04T19:35:25.210Z,99.90
2023-06-04T19:37:52.150Z,99.90
2023-06-04T19:40:19.991Z,1.00
2023-06-04T19:42:46.992Z,1.00
2023-06-04T19:45:14.013Z,1.00
2023-06-04T19:47:41.241Z,46.60
2023-06-04T19:50:08.732Z,99.90
2023-06-04T19:52:35.833Z,99.90
2023-06-04T19:55:02.864Z,99.90
2023-06-04T19:57:29.772Z,1.00
2023-06-04T19:59:56.736Z,99.90
2023-06-04T20:02:23.897Z,99.90
2023-06-04T20:04:53.520Z,99.90
2023-06-04T20:07:21.164Z,99.90
2023-06-04T20:09:48.363Z,99.90
2023-06-04T20:12:17.365Z,99.90
2023-06-04T20:14:44.379Z,99.90
2023-06-04T20:17:11.450Z,1.00
2023-06-04T20:19:38.584Z,67.60
2023-06-04T20:22:06.335Z,1.00
2023-06-04T20:24:33.303Z,99.90
2023-06-04T20:27:00.288Z,99.90
2023-06-04T20:29:28.480Z,1.00
2023-06-04T20:31:55.605Z,99.90
2023-06-04T20:34:23.564Z,99.90
2023-06-04T20:36:54.404Z,99.90
2023-06-04T20:39:21.515Z,99.90
2023-06-04T20:41:48.566Z,4.10
2023-06-04T20:44:17.539Z,94.60
2023-06-04T20:46:44.647Z,99.90
2023-06-04T20:49:11.746Z,99.90
2023-06-04T20:51:38.675Z,99.90
2023-06-04T20:54:05.833Z,99.90
2023-06-04T20:56:32.755Z,99.90
2023-06-04T20:58:59.734Z,99.90
2023-06-04T21:01:27.111Z,99.90
2023-06-04T21:03:54.210Z,99.90
2023-06-04T21:06:21.335Z,99.90
2023-06-04T21:08:48.246Z,99.90
2023-06-04T21:11:15.351Z,99.90
2023-06-04T21:13:42.291Z,99.90
2023-06-04T21:16:09.258Z,99.90
2023-06-04T21:18:36.719Z,99.90
2023-06-04T21:21:03.759Z,1.00
2023-06-04T21:23:30.783Z,1.00
2023-06-04T21:25:57.855Z,1.00
2023-06-04T21:28:24.884Z,1.00
2023-06-04T21:30:51.822Z,1.00
2023-06-04T21:33:18.770Z,1.00
2023-06-04T21:35:45.707Z,1.00
2023-06-04T21:38:12.669Z,1.00
2023-06-04T21:40:39.578Z,1.00
2023-06-04T21:43:06.544Z,1.00
2023-06-04T21:45:33.938Z,1.00
2023-06-04T21:48:01.529Z,1.00
2023-06-04T21:50:28.547Z,1.00
2023-06-04T21:52:55.726Z,1.00
2023-06-04T21:55:22.696Z,1.00
2023-06-04T21:57:49.640Z,1.00
2023-06-04T22:00:17.128Z,1.00
2023-06-04T22:02:44.195Z,1.00
2023-06-04T22:05:11.292Z,1.00
2023-06-04T22:07:38.235Z,1.00
2023-06-04T22:10:05.854Z,1.00
2023-06-04T22:12:32.804Z,1.00
2023-06-04T22:14:59.812Z,1.00
2023-06-04T22:17:26.790Z,1.00
2023-06-04T22:19:53.997Z,1.00
2023-06-04T22:22:20.946Z,1.00
2023-06-04T22:24:47.905Z,1.00
2023-06-04T22:27:15.226Z,1.00
2023-06-04T22:29:42.273Z,1.00
2023-06-04T22:32:09.221Z,1.00
2023-06-04T22:34:36.291Z,1.00
2023-06-04T22:37:03.267Z,1.00
2023-06-04T22:39:30.207Z,1.00
2023-06-04T22:41:57.176Z,1.00
2023-06-04T22:44:24.178Z,1.00
2023-06-04T22:46:51.212Z,1.50
2023-06-04T22:49:18.223Z,1.00
2023-06-04T22:51:45.278Z,1.00
2023-06-04T22:54:12.338Z,2.70
2023-06-04T22:56:39.274Z,7.60
2023-06-04T22:59:06.293Z,11.40
2023-06-04T23:01:33.325Z,12.40
2023-06-04T23:04:00.450Z,15.60
2023-06-04T23:06:27.420Z,18.90
2023-06-04T23:08:54.355Z,23.30
2023-06-04T23:11:21.876Z,23.10
2023-06-04T23:13:48.882Z,26.20
2023-06-04T23:16:15.881Z,23.80
2023-06-04T23:18:42.810Z,25.50
2023-06-04T23:21:10.073Z,25.80
2023-06-04T23:23:37.641Z,27.10
2023-06-04T23:26:04.674Z,34.40
2023-06-04T23:28:31.723Z,36.60
2023-06-04T23:30:58.666Z,36.00
2023-06-04T23:33:26.898Z,36.30
2023-06-04T23:35:53.927Z,39.70
2023-06-04T23:38:21.057Z,40.50
2023-06-04T23:40:48.183Z,41.20
2023-06-04T23:43:15.943Z,41.60
2023-06-04T23:45:42.898Z,42.50
2023-06-04T23:48:10.052Z,45.20
2023-06-04T23:54:24.311Z,48.40
2023-06-04T23:56:52.526Z,52.60
2023-06-04T23:59:19.494Z,56.50
